createdAt,value
2023-05-05T00:00:43.308Z,28.07
2023-05-05T00:02:45.052Z,28.34
2023-05-05T00:04:46.814Z,27.93
2023-05-05T00:06:48.927Z,28.08
2023-05-05T00:08:50.654Z,28.07
2023-05-05T00:10:53.657Z,28.00
2023-05-05T00:12:55.184Z,28.48
2023-05-05T00:14:57.001Z,28.08
2023-05-05T00:16:58.829Z,28.50
2023-05-05T00:19:00.440Z,27.99
2023-05-05T00:21:02.374Z,28.01
2023-05-05T00:23:04.176Z,27.81
2023-05-05T00:25:06.202Z,28.48
2023-05-05T00:27:07.830Z,28.34
2023-05-05T00:29:09.481Z,28.20
2023-05-05T00:31:11.194Z,28.46
2023-05-05T00:33:12.715Z,28.42
2023-05-05T00:35:14.374Z,28.56
2023-05-05T00:37:16.600Z,28.02
2023-05-05T00:39:18.175Z,28.07
2023-05-05T00:41:19.739Z,27.85
2023-05-05T00:43:21.422Z,28.25
2023-05-05T00:45:22.963Z,28.42
2023-05-05T00:47:24.792Z,28.04
2023-05-05T00:49:26.418Z,28.17
2023-05-05T00:51:28.586Z,28.15
2023-05-05T00:53:30.118Z,28.29
2023-05-05T00:55:33.342Z,28.03
2023-05-05T00:57:35.618Z,28.26
2023-05-05T00:59:38.156Z,28.33
2023-05-05T01:01:40.033Z,28.21
2023-05-05T01:03:42.125Z,27.94
2023-05-05T01:06:08.559Z,28.33
2023-05-05T01:08:51.172Z,27.94
2023-05-05T01:10:58.671Z,27.94
2023-05-05T01:13:27.611Z,28.12
2023-05-05T01:15:36.067Z,28.42
2023-05-05T01:17:45.535Z,28.03
2023-05-05T01:20:07.971Z,27.88
2023-05-05T01:22:13.709Z,27.88
2023-05-05T01:24:50.056Z,27.85
2023-05-05T01:27:07.172Z,28.04
2023-05-05T01:29:34.526Z,27.80
2023-05-05T01:31:53.706Z,27.90
2023-05-05T01:34:01.661Z,28.12
2023-05-05T01:36:13.505Z,28.33
2023-05-05T01:38:19.169Z,27.81
2023-05-05T01:40:26.083Z,27.95
2023-05-05T01:42:29.267Z,28.50
2023-05-05T01:44:32.896Z,27.89
2023-05-05T01:46:36.250Z,28.60
2023-05-05T01:48:41.053Z,27.91
2023-05-05T01:50:46.851Z,27.89
2023-05-05T01:52:50.299Z,28.24
2023-05-05T01:54:53.095Z,28.30
2023-05-05T01:56:57.295Z,28.00
2023-05-05T01:59:01.651Z,28.03
2023-05-05T02:01:04.523Z,28.34
2023-05-05T02:03:07.931Z,28.13
2023-05-05T02:05:10.596Z,28.62
2023-05-05T02:07:13.953Z,28.51
2023-05-05T02:09:16.302Z,27.79
2023-05-05T02:11:19.429Z,28.16
2023-05-05T02:13:23.389Z,28.42
2023-05-05T02:15:25.861Z,27.98
2023-05-05T02:17:28.931Z,28.25
2023-05-05T02:19:38.595Z,28.10
2023-05-05T02:21:41.577Z,28.00
2023-05-05T02:23:44.525Z,28.46
2023-05-05T02:25:53.134Z,28.35
2023-05-05T02:27:58.782Z,28.44
2023-05-05T02:30:04.651Z,28.56
2023-05-05T02:32:11.553Z,28.22
2023-05-05T02:34:16.450Z,28.50
2023-05-05T02:36:22.253Z,28.34
2023-05-05T02:38:27.883Z,28.40
2023-05-05T02:40:32.937Z,28.39
2023-05-05T02:42:41.500Z,28.36
2023-05-05T02:44:45.395Z,28.42
2023-05-05T02:46:47.557Z,28.09
2023-05-05T02:48:49.183Z,28.40
2023-05-05T02:50:50.796Z,28.04
2023-05-05T02:52:52.405Z,28.67
2023-05-05T02:54:54.069Z,28.24
2023-05-05T02:56:57.273Z,28.59
2023-05-05T02:59:10.998Z,28.20
2023-05-05T03:01:54.228Z,28.08
2023-05-05T03:04:12.495Z,28.28
2023-05-05T03:06:18.027Z,28.37
2023-05-05T03:09:09.755Z,28.29
2023-05-05T03:11:22.890Z,28.16
2023-05-05T03:13:26.943Z,28.62
2023-05-05T03:15:32.259Z,28.35
2023-05-05T03:17:35.169Z,28.35
2023-05-05T03:19:38.774Z,28.18
2023-05-05T03:21:40.746Z,28.47
2023-05-05T03:23:42.593Z,28.59
2023-05-05T03:25:48.466Z,28.49
2023-05-05T03:27:50.977Z,28.51
2023-05-05T03:29:52.660Z,28.33
2023-05-05T03:31:54.332Z,28.09
2023-05-05T03:33:55.909Z,28.52
2023-05-05T03:35:57.435Z,27.97
2023-05-05T03:37:59.119Z,28.05
2023-05-05T03:40:00.743Z,28.26
2023-05-05T03:42:04.908Z,28.31
2023-05-05T03:44:06.611Z,28.09
2023-05-05T03:46:08.552Z,28.61
2023-05-05T03:48:10.209Z,28.16
2023-05-05T03:50:11.832Z,28.50
2023-05-05T03:52:15.067Z,28.38
2023-05-05T03:54:17.065Z,28.64
2023-05-05T03:56:18.634Z,28.22
2023-05-05T03:58:20.445Z,28.24
2023-05-05T04:00:22.088Z,28.32
2023-05-05T04:02:23.782Z,28.59
2023-05-05T04:04:25.504Z,28.58
2023-05-05T04:06:27.638Z,28.25
2023-05-05T04:08:29.275Z,28.33
2023-05-05T04:10:30.776Z,28.16
2023-05-05T04:12:32.549Z,28.61
2023-05-05T04:14:34.138Z,28.78
2023-05-05T04:16:35.759Z,28.02
2023-05-05T04:18:37.604Z,28.30
2023-05-05T04:20:39.354Z,28.50
2023-05-05T04:22:41.076Z,28.02
2023-05-05T04:24:42.746Z,28.34
2023-05-05T04:26:44.369Z,28.55
2023-05-05T04:28:45.914Z,28.62
2023-05-05T04:30:47.458Z,28.51
2023-05-05T04:32:49.027Z,28.51
2023-05-05T04:34:50.982Z,28.75
2023-05-05T04:36:52.515Z,28.63
2023-05-05T04:38:54.203Z,28.83
2023-05-05T04:40:55.744Z,28.29
2023-05-05T04:42:57.327Z,28.65
2023-05-05T04:44:58.956Z,28.80
2023-05-05T04:47:01.117Z,28.52
2023-05-05T04:49:05.856Z,28.68
2023-05-05T04:51:07.600Z,28.64
2023-05-05T04:53:09.159Z,28.64
2023-05-05T04:55:11.676Z,28.10
2023-05-05T04:57:13.294Z,28.27
2023-05-05T04:59:15.993Z,28.64
2023-05-05T05:01:17.711Z,28.74
2023-05-05T05:03:19.350Z,28.47
2023-05-05T05:05:21.644Z,28.39
2023-05-05T05:07:23.414Z,28.57
2023-05-05T05:09:25.413Z,28.23
2023-05-05T05:11:27.258Z,28.31
2023-05-05T05:13:28.846Z,28.62
2023-05-05T05:15:30.406Z,28.33
2023-05-05T05:17:32.139Z,28.54
2023-05-05T05:19:34.135Z,28.57
2023-05-05T05:21:36.204Z,28.81
2023-05-05T05:23:37.753Z,28.88
2023-05-05T05:25:39.297Z,28.57
2023-05-05T05:27:41.729Z,28.91
2023-05-05T05:29:43.767Z,28.38
2023-05-05T05:31:45.360Z,28.43
2023-05-05T05:33:46.975Z,28.86
2023-05-05T05:35:48.554Z,28.78
2023-05-05T05:37:51.753Z,28.49
2023-05-05T05:39:53.351Z,28.63
2023-05-05T05:41:55.000Z,28.99
2023-05-05T05:43:56.593Z,28.74
2023-05-05T05:45:58.615Z,28.86
2023-05-05T05:48:00.321Z,29.06
2023-05-05T05:50:02.473Z,28.71
2023-05-05T05:52:04.520Z,28.99
2023-05-05T05:54:06.183Z,28.80
2023-05-05T05:56:08.201Z,29.00
2023-05-05T05:58:09.830Z,28.96
2023-05-05T06:00:12.457Z,28.63
2023-05-05T06:02:14.216Z,28.63
2023-05-05T06:04:16.470Z,28.55
2023-05-05T06:06:18.026Z,28.64
2023-05-05T06:08:19.549Z,28.80
2023-05-05T06:12:27.116Z,29.20
2023-05-05T06:14:28.737Z,29.17
2023-05-05T06:16:30.510Z,28.83
2023-05-05T06:18:32.116Z,28.84
2023-05-05T06:20:33.620Z,28.94
2023-05-05T06:22:35.197Z,28.79
2023-05-05T06:24:36.755Z,28.79
2023-05-05T06:26:38.364Z,29.36
2023-05-05T06:28:40.171Z,29.07
2023-05-05T06:30:41.790Z,29.23
2023-05-05T06:32:43.414Z,29.06
2023-05-05T06:34:46.953Z,28.75
2023-05-05T06:36:48.646Z,28.80
2023-05-05T06:38:50.729Z,28.81
2023-05-05T06:40:52.541Z,28.90
2023-05-05T06:42:54.179Z,28.88
2023-05-05T06:44:55.784Z,29.33
2023-05-05T06:46:57.353Z,28.81
2023-05-05T06:48:59.032Z,28.95
2023-05-05T06:51:00.697Z,28.96
2023-05-05T06:53:02.333Z,29.38
2023-05-05T06:55:04.507Z,28.99
2023-05-05T06:57:06.211Z,29.36
2023-05-05T06:59:07.802Z,29.17
2023-05-05T07:01:09.680Z,29.42
2023-05-05T07:03:11.936Z,29.63
2023-05-05T07:05:13.610Z,29.41
2023-05-05T07:07:15.306Z,29.17
2023-05-05T07:09:17.573Z,29.10
2023-05-05T07:11:22.067Z,28.94
2023-05-05T07:13:23.808Z,29.46
2023-05-05T07:15:29.405Z,29.26
2023-05-05T07:17:31.515Z,29.04
2023-05-05T07:19:33.156Z,29.49
2023-05-05T07:21:35.028Z,29.16
2023-05-05T07:23:37.892Z,29.39
2023-05-05T07:25:39.444Z,29.00
2023-05-05T07:27:41.102Z,29.39
2023-05-05T07:29:42.644Z,29.50
2023-05-05T07:31:44.595Z,29.09
2023-05-05T07:33:46.168Z,29.35
2023-05-05T07:35:47.734Z,29.44
2023-05-05T07:37:49.859Z,29.04
2023-05-05T07:39:51.903Z,29.28
2023-05-05T07:41:53.554Z,29.06
2023-05-05T07:43:55.443Z,29.10
2023-05-05T07:45:57.046Z,29.12
2023-05-05T07:47:58.668Z,29.35
2023-05-05T07:50:01.270Z,29.54
2023-05-05T07:52:02.984Z,29.60
2023-05-05T07:54:05.043Z,29.53
2023-05-05T07:56:08.985Z,29.94
2023-05-05T07:58:11.193Z,29.81
2023-05-05T08:00:13.686Z,30.43
2023-05-05T08:02:15.502Z,30.58
2023-05-05T08:04:17.269Z,30.31
2023-05-05T08:06:22.124Z,30.65
2023-05-05T08:08:24.948Z,30.67
2023-05-05T08:10:27.210Z,30.64
2023-05-05T08:12:28.865Z,30.59
2023-05-05T08:14:31.127Z,31.16
2023-05-05T08:16:32.825Z,30.42
2023-05-05T08:18:37.565Z,30.97
2023-05-05T08:20:39.467Z,30.68
2023-05-05T08:22:42.481Z,30.91
2023-05-05T08:24:43.977Z,30.56
2023-05-05T08:26:45.606Z,30.30
2023-05-05T08:28:47.223Z,30.70
2023-05-05T08:30:49.694Z,30.58
2023-05-05T08:32:51.376Z,30.89
2023-05-05T08:34:52.985Z,31.18
2023-05-05T08:36:54.800Z,30.87
2023-05-05T08:38:56.834Z,30.83
2023-05-05T08:40:58.543Z,31.10
2023-05-05T08:43:01.376Z,30.70
2023-05-05T08:45:03.406Z,31.34
2023-05-05T08:47:06.108Z,31.16
2023-05-05T08:49:14.075Z,31.67
2023-05-05T08:51:19.870Z,31.83
2023-05-05T08:53:55.878Z,31.64
2023-05-05T08:56:00.868Z,31.60
2023-05-05T08:58:05.791Z,31.31
2023-05-05T09:00:09.873Z,31.24
2023-05-05T09:02:12.509Z,31.48
2023-05-05T09:04:14.504Z,31.38
2023-05-05T09:06:16.537Z,31.43
2023-05-05T09:08:18.577Z,31.26
2023-05-05T09:10:20.701Z,31.75
2023-05-05T09:12:23.068Z,31.73
2023-05-05T09:14:24.675Z,31.07
2023-05-05T09:16:26.288Z,31.48
2023-05-05T09:18:29.473Z,31.52
2023-05-05T09:20:38.358Z,31.25
2023-05-05T09:22:40.808Z,31.50
2023-05-05T09:24:54.433Z,31.18
2023-05-05T09:26:59.453Z,31.11
2023-05-05T09:29:04.145Z,30.95
2023-05-05T09:31:12.468Z,31.02
2023-05-05T09:33:14.239Z,31.04
2023-05-05T09:35:16.409Z,31.34
2023-05-05T09:37:27.001Z,31.20
2023-05-05T09:39:28.497Z,31.68
2023-05-05T09:41:43.569Z,31.51
2023-05-05T09:43:51.859Z,31.15
2023-05-05T09:46:05.638Z,31.41
2023-05-05T09:48:07.346Z,31.13
2023-05-05T09:50:11.371Z,30.86
2023-05-05T09:52:16.215Z,30.96
2023-05-05T09:54:27.413Z,30.87
2023-05-05T09:56:39.341Z,31.28
2023-05-05T09:58:41.884Z,30.91
2023-05-05T10:00:43.768Z,31.16
2023-05-05T10:02:45.440Z,31.30
2023-05-05T10:04:47.015Z,31.49
2023-05-05T10:06:48.614Z,30.87
2023-05-05T10:09:00.542Z,30.77
2023-05-05T10:11:06.352Z,30.84
2023-05-05T10:13:08.560Z,30.89
2023-05-05T10:15:11.316Z,30.61
2023-05-05T10:17:13.316Z,30.62
2023-05-05T10:19:16.355Z,30.41
2023-05-05T10:21:20.560Z,30.41
2023-05-05T10:23:23.487Z,30.58
2023-05-05T10:25:30.317Z,30.93
2023-05-05T10:27:34.635Z,30.78
2023-05-05T10:29:54.924Z,30.80
2023-05-05T10:31:58.761Z,30.63
2023-05-05T10:34:03.349Z,30.66
2023-05-05T10:36:06.664Z,30.48
2023-05-05T10:38:08.874Z,30.56
2023-05-05T10:40:11.735Z,30.46
2023-05-05T10:42:14.967Z,31.03
2023-05-05T10:44:17.512Z,31.15
2023-05-05T10:46:19.043Z,30.62
2023-05-05T10:48:36.030Z,30.51
2023-05-05T10:50:41.586Z,30.51
2023-05-05T10:52:52.587Z,30.27
2023-05-05T10:55:09.202Z,30.85
2023-05-05T10:57:10.908Z,30.72
2023-05-05T10:59:31.519Z,30.44
2023-05-05T11:01:33.882Z,30.26
2023-05-05T11:03:35.742Z,30.49
2023-05-05T11:05:57.179Z,30.47
2023-05-05T11:08:18.543Z,30.76
2023-05-05T11:10:21.002Z,30.87
2023-05-05T11:12:22.773Z,30.62
2023-05-05T11:14:24.274Z,30.65
2023-05-05T11:16:42.611Z,30.36
2023-05-05T11:18:44.279Z,30.50
2023-05-05T11:20:48.818Z,30.56
2023-05-05T11:23:02.163Z,30.76
2023-05-05T11:25:23.652Z,31.20
2023-05-05T11:27:45.279Z,30.99
2023-05-05T11:30:04.726Z,31.22
2023-05-05T11:32:13.461Z,31.14
2023-05-05T11:34:25.715Z,31.37
2023-05-05T11:36:38.560Z,30.87
2023-05-05T11:38:58.524Z,30.96
2023-05-05T11:41:05.674Z,30.73
2023-05-05T11:43:07.550Z,31.08
2023-05-05T11:45:24.967Z,30.91
2023-05-05T11:47:27.862Z,30.94
2023-05-05T11:49:33.370Z,31.14
2023-05-05T11:51:35.018Z,31.47
2023-05-05T11:53:36.594Z,30.85
2023-05-05T11:55:38.053Z,30.92
2023-05-05T11:57:39.552Z,30.98
2023-05-05T11:59:49.981Z,31.01
2023-05-05T12:01:51.653Z,30.75
2023-05-05T12:03:53.354Z,30.25
2023-05-05T12:05:55.436Z,31.00
2023-05-05T12:07:58.429Z,30.90
2023-05-05T12:10:00.290Z,30.73
2023-05-05T12:12:02.672Z,30.80
2023-05-05T12:14:08.161Z,30.42
2023-05-05T12:16:10.137Z,30.32
2023-05-05T12:18:20.712Z,30.14
2023-05-05T12:20:35.142Z,30.31
2023-05-05T12:22:36.791Z,30.09
2023-05-05T12:24:38.355Z,30.18
2023-05-05T12:26:39.921Z,29.98
2023-05-05T12:28:47.894Z,29.83
2023-05-05T12:30:58.934Z,30.00
2023-05-05T12:33:04.517Z,29.52
2023-05-05T12:35:06.585Z,29.86
2023-05-05T12:37:08.082Z,29.94
2023-05-05T12:39:09.522Z,29.70
2023-05-05T12:41:10.968Z,29.98
2023-05-05T12:43:24.582Z,29.70
2023-05-05T12:45:26.020Z,29.84
2023-05-05T12:47:31.674Z,30.06
2023-05-05T12:49:49.130Z,29.55
2023-05-05T12:51:54.595Z,29.86
2023-05-05T12:54:07.187Z,29.81
2023-05-05T12:56:27.623Z,29.65
2023-05-05T12:58:31.667Z,29.55
2023-05-05T13:00:33.209Z,29.31
2023-05-05T13:02:35.176Z,29.40
2023-05-05T13:04:47.444Z,29.53
2023-05-05T13:06:49.626Z,29.24
2023-05-05T13:08:52.068Z,28.77
2023-05-05T13:10:57.999Z,29.12
2023-05-05T13:12:59.550Z,29.11
2023-05-05T13:15:01.172Z,28.83
2023-05-05T13:17:02.736Z,29.07
2023-05-05T13:19:04.333Z,28.77
2023-05-05T13:21:05.865Z,29.02
2023-05-05T13:23:07.291Z,29.10
2023-05-05T13:25:08.959Z,28.99
2023-05-05T13:27:10.631Z,29.33
2023-05-05T13:29:12.260Z,30.94
2023-05-05T13:31:13.835Z,29.38
2023-05-05T13:33:15.402Z,29.42
2023-05-05T13:35:17.121Z,29.58
2023-05-05T13:37:18.676Z,30.18
2023-05-05T13:39:20.207Z,29.27
2023-05-05T13:41:21.653Z,29.08
2023-05-05T13:43:23.167Z,29.36
2023-05-05T13:45:24.582Z,28.97
2023-05-05T13:47:26.113Z,29.09
2023-05-05T13:49:27.633Z,28.79
2023-05-05T13:51:30.143Z,29.02
2023-05-05T13:53:31.934Z,28.99
2023-05-05T13:55:33.375Z,29.19
2023-05-05T13:57:34.977Z,29.15
2023-05-05T13:59:36.500Z,28.95
2023-05-05T14:01:38.625Z,29.28
2023-05-05T14:03:40.364Z,29.30
2023-05-05T14:05:46.171Z,29.15
2023-05-05T14:07:47.668Z,28.95
2023-05-05T14:09:49.150Z,28.85
2023-05-05T14:11:50.834Z,28.96
2023-05-05T14:13:52.767Z,28.95
2023-05-05T14:15:54.224Z,29.45
2023-05-05T14:17:56.029Z,29.82
2023-05-05T14:19:57.708Z,29.43
2023-05-05T14:21:59.477Z,29.20
2023-05-05T14:24:01.041Z,29.33
2023-05-05T14:26:02.738Z,29.12
2023-05-05T14:28:04.320Z,29.40
2023-05-05T14:30:06.524Z,29.14
2023-05-05T14:32:07.998Z,29.34
2023-05-05T14:34:10.058Z,29.27
2023-05-05T14:36:11.659Z,29.06
2023-05-05T14:38:13.191Z,29.16
2023-05-05T14:40:14.903Z,29.38
2023-05-05T14:42:16.372Z,29.20
2023-05-05T14:44:18.098Z,29.44
2023-05-05T14:46:19.766Z,29.44
2023-05-05T14:48:22.368Z,29.17
2023-05-05T14:50:24.072Z,29.42
2023-05-05T14:52:25.697Z,29.49
2023-05-05T14:54:28.851Z,29.20
2023-05-05T14:56:30.585Z,29.59
2023-05-05T14:58:32.156Z,29.76
2023-05-05T15:00:33.779Z,29.34
2023-05-05T15:02:35.290Z,29.43
2023-05-05T15:04:36.839Z,29.12
2023-05-05T15:06:38.291Z,29.35
2023-05-05T15:08:39.867Z,29.61
2023-05-05T15:10:41.351Z,29.26
2023-05-05T15:12:43.513Z,29.80
2023-05-05T15:14:45.026Z,29.87
2023-05-05T15:16:46.890Z,29.68
2023-05-05T15:18:48.588Z,29.58
2023-05-05T15:20:50.051Z,29.55
2023-05-05T15:22:51.505Z,29.46
2023-05-05T15:24:53.101Z,29.52
2023-05-05T15:26:54.618Z,29.62
2023-05-05T15:28:56.556Z,29.47
2023-05-05T15:31:00.015Z,29.53
2023-05-05T15:33:01.654Z,29.55
2023-05-05T15:35:03.188Z,29.56
2023-05-05T15:37:04.577Z,29.67
2023-05-05T15:39:06.042Z,29.76
2023-05-05T15:41:08.222Z,29.76
2023-05-05T15:43:09.780Z,29.61
2023-05-05T15:45:12.305Z,29.77
2023-05-05T15:47:14.045Z,29.39
2023-05-05T15:49:15.603Z,29.11
2023-05-05T15:51:17.164Z,29.24
2023-05-05T15:53:18.723Z,29.23
2023-05-05T15:55:20.593Z,28.71
2023-05-05T15:57:22.038Z,29.48
2023-05-05T15:59:23.489Z,29.11
2023-05-05T16:01:25.049Z,29.34
2023-05-05T16:03:26.619Z,28.92
2023-05-05T16:05:28.182Z,28.95
2023-05-05T16:07:29.764Z,29.46
2023-05-05T16:09:31.315Z,29.39
2023-05-05T16:11:32.814Z,29.35
2023-05-05T16:13:34.608Z,29.57
2023-05-05T16:15:36.163Z,29.76
2023-05-05T16:17:37.717Z,29.75
2023-05-05T16:19:39.309Z,29.77
2023-05-05T16:21:40.888Z,29.97
2023-05-05T16:23:42.466Z,30.11
2023-05-05T16:25:44.739Z,30.37
2023-05-05T16:27:46.222Z,30.32
2023-05-05T16:29:47.700Z,30.48
2023-05-05T16:31:49.611Z,30.52
2023-05-05T16:33:51.733Z,30.65
2023-05-05T16:35:53.368Z,30.67
2023-05-05T16:37:55.069Z,30.78
2023-05-05T16:39:56.508Z,30.90
2023-05-05T16:41:57.912Z,30.77
2023-05-05T16:44:01.434Z,30.91
2023-05-05T16:46:06.253Z,30.86
2023-05-05T16:48:09.098Z,30.84
2023-05-05T16:50:11.087Z,31.14
2023-05-05T16:52:12.569Z,30.67
2023-05-05T16:54:14.030Z,30.92
2023-05-05T16:56:15.952Z,30.98
2023-05-05T16:58:17.805Z,30.89
2023-05-05T17:00:19.362Z,30.65
2023-05-05T17:02:20.942Z,30.74
2023-05-05T17:04:22.353Z,30.92
2023-05-05T17:06:23.811Z,31.03
2023-05-05T17:08:25.495Z,30.82
2023-05-05T17:10:27.396Z,30.86
2023-05-05T17:12:28.925Z,30.65
2023-05-05T17:14:30.562Z,30.80
2023-05-05T17:16:32.388Z,30.98
2023-05-05T17:18:34.014Z,30.75
2023-05-05T17:20:36.276Z,30.98
2023-05-05T17:22:38.008Z,30.63
2023-05-05T17:24:39.525Z,30.73
2023-05-05T17:26:41.443Z,30.84
2023-05-05T17:28:43.229Z,30.80
2023-05-05T17:30:44.705Z,31.35
2023-05-05T17:32:47.201Z,31.37
2023-05-05T17:34:48.692Z,32.00
2023-05-05T17:36:50.112Z,32.25
2023-05-05T17:38:51.522Z,32.64
2023-05-05T17:40:53.138Z,33.66
2023-05-05T17:42:55.026Z,33.96
2023-05-05T17:44:56.722Z,34.29
2023-05-05T17:46:58.494Z,34.93
2023-05-05T17:49:00.564Z,35.08
2023-05-05T17:51:02.374Z,35.25
2023-05-05T17:53:04.409Z,35.21
2023-05-05T17:55:06.321Z,35.35
2023-05-05T17:57:07.811Z,35.72
2023-05-05T17:59:09.212Z,35.55
2023-05-05T18:01:19.570Z,35.74
2023-05-05T18:03:21.218Z,36.25
2023-05-05T18:05:22.806Z,35.85
2023-05-05T18:07:24.193Z,35.98
2023-05-05T18:09:26.561Z,35.82
2023-05-05T18:11:30.644Z,36.16
2023-05-05T18:13:32.132Z,36.23
2023-05-05T18:15:33.839Z,36.35
2023-05-05T18:17:35.553Z,36.63
2023-05-05T18:19:38.039Z,36.19
2023-05-05T18:21:39.564Z,36.07
2023-05-05T18:23:41.216Z,36.57
2023-05-05T18:25:42.734Z,36.66
2023-05-05T18:27:44.442Z,36.63
2023-05-05T18:29:45.942Z,36.64
2023-05-05T18:31:52.018Z,37.17
2023-05-05T18:33:53.776Z,36.46
2023-05-05T18:35:55.202Z,36.36
2023-05-05T18:37:56.725Z,36.37
2023-05-05T18:39:58.425Z,36.19
2023-05-05T18:42:00.013Z,35.70
2023-05-05T18:44:01.481Z,35.81
2023-05-05T18:46:02.921Z,35.46
2023-05-05T18:48:04.647Z,35.38
2023-05-05T18:50:07.020Z,35.35
2023-05-05T18:52:08.776Z,35.42
2023-05-05T18:54:10.275Z,35.37
2023-05-05T18:56:11.797Z,35.02
2023-05-05T18:58:13.462Z,35.02
2023-05-05T19:00:15.515Z,34.86
2023-05-05T19:02:17.884Z,34.97
2023-05-05T19:04:30.745Z,35.08
2023-05-05T19:06:33.117Z,35.06
2023-05-05T19:08:34.649Z,34.47
2023-05-05T19:10:36.301Z,34.64
2023-05-05T19:12:37.815Z,34.88
2023-05-05T19:14:39.264Z,34.74
2023-05-05T19:16:40.784Z,34.71
2023-05-05T19:18:42.648Z,34.89
2023-05-05T19:20:44.209Z,34.81
2023-05-05T19:22:45.656Z,34.63
2023-05-05T19:24:47.331Z,34.72
2023-05-05T19:26:48.847Z,34.49
2023-05-05T19:28:50.514Z,34.75
2023-05-05T19:30:52.073Z,34.26
2023-05-05T19:32:53.798Z,34.64
2023-05-05T19:34:55.828Z,34.31
2023-05-05T19:36:57.247Z,34.64
2023-05-05T19:39:00.283Z,34.48
2023-05-05T19:41:01.729Z,34.40
2023-05-05T19:43:03.188Z,34.27
2023-05-05T19:45:04.964Z,34.25
2023-05-05T19:47:07.193Z,34.14
2023-05-05T19:49:08.813Z,34.07
2023-05-05T19:51:10.416Z,34.22
2023-05-05T19:53:11.801Z,34.24
2023-05-05T19:55:13.330Z,34.21
2023-05-05T19:57:15.022Z,34.36
2023-05-05T19:59:16.817Z,34.37
2023-05-05T20:01:18.349Z,34.12
2023-05-05T20:03:19.870Z,33.81
2023-05-05T20:05:21.492Z,34.20
2023-05-05T20:07:22.921Z,33.86
2023-05-05T20:09:24.326Z,34.07
2023-05-05T20:11:26.083Z,34.28
2023-05-05T20:13:27.513Z,34.21
2023-05-05T20:15:30.632Z,34.08
2023-05-05T20:17:32.736Z,33.76
2023-05-05T20:19:34.290Z,34.03
2023-05-05T20:21:35.947Z,33.96
2023-05-05T20:23:37.530Z,33.71
2023-05-05T20:25:39.065Z,34.09
2023-05-05T20:27:41.357Z,33.94
2023-05-05T20:29:42.856Z,33.66
2023-05-05T20:31:44.374Z,33.83
2023-05-05T20:33:45.958Z,33.85
2023-05-05T20:35:48.540Z,33.88
2023-05-05T20:37:51.432Z,33.72
2023-05-05T20:39:53.298Z,33.61
2023-05-05T20:41:54.739Z,33.69
2023-05-05T20:43:56.143Z,33.48
2023-05-05T20:45:57.623Z,33.89
2023-05-05T20:47:59.760Z,33.65
2023-05-05T20:50:01.666Z,33.67
2023-05-05T20:52:03.340Z,33.70
2023-05-05T20:54:04.949Z,33.57
2023-05-05T20:56:08.618Z,33.73
2023-05-05T20:58:10.817Z,33.62
2023-05-05T21:00:12.625Z,33.29
2023-05-05T21:02:14.092Z,33.64
2023-05-05T21:04:15.644Z,33.49
2023-05-05T21:06:19.393Z,33.67
2023-05-05T21:08:21.228Z,33.68
2023-05-05T21:10:22.838Z,33.50
2023-05-05T21:12:24.309Z,33.66
2023-05-05T21:14:25.848Z,33.43
2023-05-05T21:16:27.416Z,33.16
2023-05-05T21:18:29.058Z,33.25
2023-05-05T21:20:30.545Z,33.35
2023-05-05T21:22:32.001Z,33.36
2023-05-05T21:24:33.463Z,33.52
2023-05-05T21:26:35.076Z,33.09
2023-05-05T21:28:36.537Z,33.39
2023-05-05T21:30:38.378Z,33.43
2023-05-05T21:32:40.281Z,33.00
2023-05-05T21:34:41.774Z,33.63
2023-05-05T21:36:43.233Z,33.23
2023-05-05T21:38:44.738Z,33.21
2023-05-05T21:40:46.268Z,33.28
2023-05-05T21:42:47.673Z,33.10
2023-05-05T21:44:49.237Z,33.16
2023-05-05T21:46:50.748Z,33.39
2023-05-05T21:48:52.316Z,32.85
2023-05-05T21:50:54.403Z,33.24
2023-05-05T21:52:55.953Z,32.83
2023-05-05T21:54:57.632Z,33.29
2023-05-05T21:57:00.172Z,33.12
2023-05-05T21:59:01.707Z,32.91
2023-05-05T22:01:03.370Z,32.82
2023-05-05T22:03:05.176Z,32.71
2023-05-05T22:05:07.286Z,33.21
2023-05-05T22:07:08.762Z,32.77
2023-05-05T22:09:10.384Z,32.80
2023-05-05T22:11:11.883Z,32.87
2023-05-05T22:13:14.555Z,33.12
2023-05-05T22:15:19.204Z,33.19
2023-05-05T22:17:20.657Z,33.18
2023-05-05T22:19:22.201Z,33.17
2023-05-05T22:21:23.757Z,33.22
2023-05-05T22:23:25.327Z,32.98
2023-05-05T22:25:26.864Z,32.68
2023-05-05T22:27:28.351Z,32.66
2023-05-05T22:29:29.820Z,33.07
2023-05-05T22:31:31.334Z,33.00
2023-05-05T22:33:32.953Z,32.64
2023-05-05T22:35:34.462Z,33.06
2023-05-05T22:37:36.364Z,32.87
2023-05-05T22:39:37.776Z,32.79
2023-05-05T22:41:39.250Z,32.83
2023-05-05T22:43:40.733Z,32.79
2023-05-05T22:45:43.163Z,33.10
2023-05-05T22:47:45.182Z,32.50
2023-05-05T22:49:47.211Z,32.59
2023-05-05T22:51:48.714Z,32.68
2023-05-05T22:53:50.150Z,32.52
2023-05-05T22:55:52.037Z,32.65
2023-05-05T22:57:53.509Z,32.59
2023-05-05T22:59:55.005Z,32.86
2023-05-05T23:01:56.472Z,33.10
2023-05-05T23:03:58.069Z,32.44
2023-05-05T23:05:59.585Z,32.79
2023-05-05T23:08:01.278Z,32.51
2023-05-05T23:10:03.611Z,32.72
2023-05-05T23:12:05.215Z,32.81
2023-05-05T23:14:06.747Z,32.76
2023-05-05T23:16:08.369Z,32.48
2023-05-05T23:18:09.899Z,32.35
2023-05-05T23:20:13.050Z,32.76
2023-05-05T23:22:14.723Z,32.40
2023-05-05T23:24:16.213Z,32.50
2023-05-05T23:26:17.674Z,32.51
2023-05-05T23:28:20.215Z,32.38
2023-05-05T23:30:21.736Z,32.32
2023-05-05T23:32:23.558Z,32.69
2023-05-05T23:34:25.872Z,32.58
2023-05-05T23:36:27.448Z,32.38
2023-05-05T23:38:28.880Z,32.54
2023-05-05T23:40:30.441Z,32.75
2023-05-05T23:42:31.896Z,32.40
2023-05-05T23:44:33.351Z,32.34
2023-05-05T23:46:35.434Z,32.34
2023-05-05T23:48:37.110Z,32.29
2023-05-05T23:50:38.530Z,32.24
2023-05-05T23:52:40.104Z,32.39
2023-05-05T23:54:41.553Z,32.42
2023-05-05T23:56:43.097Z,32.44
2023-05-05T23:58:44.598Z,32.71
